Time;durP1;ratioP1;P1;durP2;ratioP2;P2;SDS_P1;SDS_P2;PMS_P1;PMS_P2;Temp;Humidity;BMP_temperature;BMP_pressure;BME280_temperature;BME280_humidity;BME280_pressure;Samples;Min_cycle;Max_cycle;Signal;HPM_P1;HPM_P2
2023/08/24 00:02:02;;;;;;;5.07;2.60;;;;;;;18.34;83.33;101640.81;4999579;28;20061;-77
2023/08/24 00:04:29;;;;;;;3.90;2.38;;;;;;;18.41;83.34;101646.72;5003235;28;20100;-77
2023/08/24 00:06:57;;;;;;;4.22;2.40;;;;;;;18.46;82.58;101639.34;5005871;28;20073;-77
2023/08/24 00:09:24;;;;;;;5.22;2.65;;;;;;;18.38;83.09;101639.75;5004325;28;20049;-78
2023/08/24 00:11:51;;;;;;;4.22;2.38;;;;;;;18.23;83.56;101636.03;5005848;28;20045;-73
2023/08/24 00:14:19;;;;;;;5.47;2.83;;;;;;;18.19;84.14;101639.78;5004452;28;20402;-74
2023/08/24 00:16:46;;;;;;;5.18;3.13;;;;;;;18.09;84.35;101635.84;5008775;28;20045;-78
2023/08/24 00:19:13;;;;;;;5.03;2.63;;;;;;;17.97;84.84;101640.84;5008759;28;20041;-78
2023/08/24 00:21:40;;;;;;;8.77;3.10;;;;;;;17.89;84.81;101648.31;5004871;28;20523;-77
2023/08/24 00:24:07;;;;;;;6.13;2.60;;;;;;;17.86;85.39;101643.13;5000682;28;20100;-76
2023/08/24 00:26:34;;;;;;;6.75;2.92;;;;;;;17.84;85.73;101635.22;4987276;28;20064;-77
2023/08/24 00:29:01;;;;;;;7.13;3.33;;;;;;;17.83;85.84;101637.97;5004910;28;20042;-76
2023/08/24 00:31:29;;;;;;;10.02;3.20;;;;;;;17.81;85.97;101634.50;5005634;28;20045;-78
2023/08/24 00:33:56;;;;;;;5.07;2.90;;;;;;;17.80;86.26;101635.44;5008538;28;20048;-77
2023/08/24 00:36:25;;;;;;;4.70;2.90;;;;;;;17.87;86.12;101631.53;4990004;28;20034;-78
2023/08/24 00:38:53;;;;;;;3.97;2.63;;;;;;;17.98;86.03;101625.72;5000281;28;20050;-76
2023/08/24 00:41:21;;;;;;;5.53;3.00;;;;;;;18.11;85.49;101632.16;4979371;28;20054;-76
2023/08/24 00:43:50;;;;;;;5.45;3.00;;;;;;;18.17;84.65;101639.00;5001160;28;20125;-77
2023/08/24 00:46:18;;;;;;;7.22;3.22;;;;;;;18.13;84.28;101632.94;5005315;28;20116;-77
2023/08/24 00:48:47;;;;;;;5.85;3.30;;;;;;;18.04;84.43;101636.06;4999877;28;20419;-77
2023/08/24 00:51:15;;;;;;;9.30;3.33;;;;;;;17.93;84.84;101639.25;4982516;28;20040;-77
2023/08/24 00:53:42;;;;;;;5.07;3.13;;;;;;;17.84;84.58;101640.56;5004240;28;20041;-74
2023/08/24 00:56:09;;;;;;;5.18;3.38;;;;;;;17.75;84.49;101653.47;5003354;28;20491;-74
2023/08/24 00:58:38;;;;;;;5.85;3.38;;;;;;;17.67;84.73;101641.34;5006327;28;20094;-73
2023/08/24 01:01:05;;;;;;;4.82;3.47;;;;;;;17.63;85.40;101634.47;5002549;28;20050;-73
2023/08/24 01:03:33;;;;;;;7.85;3.53;;;;;;;17.62;86.07;101639.84;5005461;28;20114;-73
2023/08/24 01:06:00;;;;;;;8.35;4.20;;;;;;;17.56;86.13;101634.81;5005907;28;20081;-73
2023/08/24 01:08:27;;;;;;;9.50;3.58;;;;;;;17.51;86.22;101633.22;4990915;28;20049;-73
2023/08/24 01:11:08;;;;;;;6.78;3.40;;;;;;;17.46;86.11;101635.25;5004418;28;20572;-74
2023/08/24 01:13:55;;;;;;;8.18;3.80;;;;;;;17.41;86.05;101637.25;4989188;28;20046;-75
2023/08/24 01:16:31;;;;;;;8.82;3.85;;;;;;;17.39;86.45;101631.16;5005860;28;20053;-75
2023/08/24 01:19:03;;;;;;;11.50;3.67;;;;;;;17.37;86.73;101633.00;5008036;28;20050;-76
2023/08/24 01:21:33;;;;;;;6.55;3.28;;;;;;;17.34;86.93;101627.81;5003678;28;20096;-75
2023/08/24 01:24:47;;;;;;;6.32;3.50;;;;;;;17.35;87.63;101625.06;5001745;28;20046;-75
2023/08/24 01:27:15;;;;;;;6.47;3.50;;;;;;;17.34;87.77;101617.16;5003942;28;20498;-76
2023/08/24 01:29:42;;;;;;;8.07;4.20;;;;;;;17.31;87.85;101626.16;5006057;28;20576;-76
2023/08/24 01:32:11;;;;;;;8.18;4.15;;;;;;;17.31;88.14;101620.84;5004706;28;20053;-75
2023/08/24 01:34:39;;;;;;;7.97;4.18;;;;;;;17.26;88.00;101620.16;4989495;28;20038;-77
2023/08/24 01:37:07;;;;;;;7.28;4.07;;;;;;;17.22;88.16;101618.59;4992113;28;20047;-75
2023/08/24 01:39:50;;;;;;;8.43;3.58;;;;;;;17.21;88.34;101611.53;5004837;28;20068;-77
2023/08/24 01:42:25;;;;;;;6.10;3.85;;;;;;;17.19;87.78;101611.63;5005482;28;20127;-75
2023/08/24 01:44:59;;;;;;;9.43;4.35;;;;;;;17.19;87.76;101629.38;4985848;28;20090;-76
2023/08/24 01:47:29;;;;;;;6.22;4.25;;;;;;;17.11;87.86;101619.06;5004028;28;20050;-73
2023/08/24 01:49:56;;;;;;;7.40;4.22;;;;;;;17.11;87.76;101619.06;5020967;28;20092;-75
2023/08/24 01:52:25;;;;;;;9.60;4.40;;;;;;;17.10;87.81;101614.69;4988929;28;20057;-76
2023/08/24 01:54:52;;;;;;;5.75;4.00;;;;;;;17.07;88.07;101601.53;5001383;28;20046;-75
2023/08/24 01:57:19;;;;;;;7.82;4.50;;;;;;;17.07;88.00;101596.19;5001145;28;20092;-74
2023/08/24 01:59:46;;;;;;;5.10;3.83;;;;;;;17.13;88.79;101595.06;5006206;28;20075;-77
2023/08/24 02:02:13;;;;;;;6.40;4.22;;;;;;;17.18;89.10;101607.22;5004236;28;20042;-74
2023/08/24 02:04:40;;;;;;;7.35;4.65;;;;;;;17.17;89.02;101601.94;5004423;28;20042;-75
2023/08/24 02:07:08;;;;;;;8.05;4.60;;;;;;;17.20;88.96;101604.47;5003461;28;20554;-74
2023/08/24 02:09:35;;;;;;;9.48;5.18;;;;;;;17.21;88.76;101603.53;5005218;28;20037;-77
2023/08/24 02:12:02;;;;;;;7.85;4.93;;;;;;;17.23;88.56;101604.34;4990883;28;20120;-76
2023/08/24 02:14:29;;;;;;;8.50;4.90;;;;;;;17.22;89.00;101599.94;5006529;28;20037;-77
2023/08/24 02:16:56;;;;;;;6.43;4.95;;;;;;;17.26;89.20;101608.66;5003228;28;20802;-76
2023/08/24 02:19:24;;;;;;;7.70;4.85;;;;;;;17.34;89.56;101609.16;4988615;28;20064;-75
2023/08/24 02:21:51;;;;;;;10.68;5.60;;;;;;;17.40;89.69;101606.19;5003990;28;20128;-73
2023/08/24 02:24:18;;;;;;;9.65;5.38;;;;;;;17.41;88.89;101620.41;5005252;28;20038;-74
2023/08/24 02:26:45;;;;;;;9.57;5.32;;;;;;;17.40;88.89;101619.53;5005026;28;20415;-75
2023/08/24 02:29:12;;;;;;;7.80;5.32;;;;;;;17.41;88.94;101613.25;4996523;28;20061;-75
2023/08/24 02:31:40;;;;;;;11.38;5.63;;;;;;;17.41;89.08;101617.75;5005594;28;20553;-76
2023/08/24 02:34:07;;;;;;;9.38;5.07;;;;;;;17.39;89.04;101613.34;4994194;28;20428;-76
2023/08/24 02:36:37;;;;;;;10.25;5.63;;;;;;;17.44;89.20;101606.94;5004790;28;20132;-76
2023/08/24 02:39:05;;;;;;;9.32;5.43;;;;;;;17.50;89.42;101593.31;5005200;28;20049;-76
2023/08/24 02:41:32;;;;;;;7.93;4.18;;;;;;;17.56;89.57;101590.34;5006293;28;20064;-76
2023/08/24 02:43:59;;;;;;;10.25;5.07;;;;;;;17.65;89.76;101584.56;4987651;28;20104;-77
2023/08/24 02:46:26;;;;;;;9.55;5.65;;;;;;;17.67;89.25;101593.38;5005341;28;20046;-77
2023/08/24 02:48:53;;;;;;;11.20;6.32;;;;;;;17.59;89.11;101605.34;5004543;28;20041;-77
2023/08/24 02:51:24;;;;;;;7.60;5.32;;;;;;;17.54;89.40;101609.09;5006284;28;20490;-73
2023/08/24 02:53:51;;;;;;;11.40;5.90;;;;;;;17.57;89.54;101593.88;5005853;28;20076;-75
2023/08/24 02:56:20;;;;;;;12.40;6.18;;;;;;;17.61;90.23;101598.13;5003881;28;20038;-74
2023/08/24 02:58:47;;;;;;;10.73;6.40;;;;;;;17.60;90.24;101591.94;5004099;28;20042;-74
2023/08/24 03:01:14;;;;;;;8.90;5.78;;;;;;;17.62;90.39;101584.75;5004311;28;20137;-76
2023/08/24 03:03:41;;;;;;;8.65;5.85;;;;;;;17.70;91.04;101579.03;4986197;28;20088;-75
2023/08/24 03:06:33;;;;;;;6.63;4.63;;;;;;;17.82;90.73;101562.41;5005056;28;20054;-76
2023/08/24 03:09:27;;;;;;;9.75;6.07;;;;;;;18.03;90.08;101558.81;5004674;28;20038;-76
2023/08/24 03:11:55;;;;;;;6.90;5.18;;;;;;;18.11;89.68;101553.94;5005386;28;20084;-76
2023/08/24 03:14:22;;;;;;;9.88;6.18;;;;;;;18.19;89.17;101550.88;4983757;28;20095;-76
2023/08/24 03:16:49;;;;;;;9.68;5.57;;;;;;;18.19;88.95;101554.41;5001030;28;20046;-76
2023/08/24 03:19:18;;;;;;;8.38;5.45;;;;;;;18.12;88.95;101542.31;4994412;28;20050;-77
2023/08/24 03:21:45;;;;;;;8.80;6.05;;;;;;;18.05;89.53;101533.75;4989257;28;20042;-77
2023/08/24 03:24:12;;;;;;;10.90;6.95;;;;;;;17.99;90.06;101537.59;5004966;28;20513;-76
2023/08/24 03:26:39;;;;;;;12.35;6.32;;;;;;;17.93;90.67;101532.56;5008684;28;20049;-76
2023/08/24 03:29:06;;;;;;;9.85;6.45;;;;;;;17.89;91.44;101514.13;5010449;28;20038;-75
2023/08/24 03:31:33;;;;;;;12.55;6.50;;;;;;;17.87;92.09;101500.84;5007567;28;20046;-75
2023/08/24 03:34:00;;;;;;;13.82;7.97;;;;;;;17.87;92.36;101502.66;5004746;28;20627;-74
2023/08/24 03:36:28;;;;;;;17.20;7.72;;;;;;;17.86;93.02;101477.78;5002944;28;20046;-74
2023/08/24 03:38:55;;;;;;;11.75;7.30;;;;;;;17.89;93.60;101461.63;5008751;28;20049;-74
2023/08/24 03:41:22;;;;;;;12.60;8.98;;;;;;;17.91;93.67;101453.53;4984317;28;20038;-75
2023/08/24 03:43:50;;;;;;;16.83;9.57;;;;;;;17.89;94.09;101453.63;5008935;28;20509;-74
2023/08/24 03:46:17;;;;;;;14.95;9.65;;;;;;;17.92;94.35;101460.59;5008606;28;20050;-73
2023/08/24 03:48:44;;;;;;;14.98;9.48;;;;;;;17.94;94.72;101472.06;5020139;28;20045;-74
2023/08/24 03:51:11;;;;;;;16.10;10.57;;;;;;;17.99;94.84;101464.72;4991800;28;20346;-76
2023/08/24 03:53:38;;;;;;;12.25;9.20;;;;;;;18.04;94.43;101454.66;5007737;28;20048;-77
2023/08/24 03:56:07;;;;;;;16.58;10.48;;;;;;;18.09;94.65;101462.44;4997624;28;20046;-78
2023/08/24 03:58:34;;;;;;;13.65;9.75;;;;;;;18.10;94.52;101438.38;4997212;28;20042;-77
2023/08/24 04:01:04;;;;;;;14.70;9.57;;;;;;;18.13;94.71;101435.50;5007602;28;20053;-75
2023/08/24 04:03:31;;;;;;;15.60;11.00;;;;;;;18.13;94.69;101430.19;5007797;28;20038;-76
2023/08/24 04:05:58;;;;;;;17.85;10.90;;;;;;;18.13;94.99;101421.31;4989281;28;20042;-76
2023/08/24 04:08:25;;;;;;;16.45;10.73;;;;;;;18.10;94.43;101425.03;5008672;28;20038;-77
2023/08/24 04:10:52;;;;;;;18.80;11.88;;;;;;;18.08;95.27;101439.38;4992389;28;20501;-76
2023/08/24 04:13:21;;;;;;;19.55;12.20;;;;;;;18.05;95.27;101456.41;4992184;28;20042;-76
2023/08/24 04:15:48;;;;;;;14.38;11.18;;;;;;;17.94;96.27;101458.72;5005133;28;20038;-77
2023/08/24 04:18:16;;;;;;;15.95;12.27;;;;;;;17.85;96.54;101460.09;5003016;28;20060;-78
2023/08/24 04:20:43;;;;;;;19.25;13.60;;;;;;;17.78;97.34;101458.66;4996057;28;20065;-77
2023/08/24 04:23:13;;;;;;;16.52;12.07;;;;;;;17.75;97.90;101466.81;5010048;28;20042;-78
2023/08/24 04:25:40;;;;;;;16.42;12.95;;;;;;;17.66;98.52;101452.16;5008304;28;20048;-78
2023/08/24 04:28:07;;;;;;;16.70;12.40;;;;;;;17.69;99.30;101452.84;5007853;28;20115;-77
2023/08/24 04:30:35;;;;;;;18.83;11.82;;;;;;;17.72;99.11;101450.97;5008512;28;20044;-75
2023/08/24 04:33:03;;;;;;;17.77;13.35;;;;;;;17.81;99.09;101447.84;5018278;28;20045;-80
2023/08/24 04:35:35;;;;;;;20.85;13.73;;;;;;;17.84;98.96;101456.53;5010219;28;20125;-77
2023/08/24 04:38:03;;;;;;;23.17;14.82;;;;;;;17.83;98.71;101454.81;5005697;28;20057;-75
2023/08/24 04:40:46;;;;;;;23.23;15.25;;;;;;;17.79;98.69;101468.38;5015708;28;20038;-74
2023/08/24 04:43:13;;;;;;;19.98;14.98;;;;;;;17.74;99.26;101467.75;5008371;28;20046;-76
2023/08/24 04:45:40;;;;;;;18.45;12.93;;;;;;;17.77;99.77;101467.59;5006287;28;20045;-75
2023/08/24 04:48:07;;;;;;;18.92;13.05;;;;;;;17.81;99.88;101459.34;5005949;28;20050;-75
2023/08/24 04:50:34;;;;;;;16.95;12.55;;;;;;;17.87;99.26;101444.00;5006015;28;20037;-76
2023/08/24 04:53:02;;;;;;;19.80;11.52;;;;;;;17.97;99.42;101447.94;5005326;28;20041;-76
2023/08/24 04:55:29;;;;;;;16.55;12.82;;;;;;;18.05;98.78;101439.53;4995936;28;20053;-77
2023/08/24 04:57:56;;;;;;;16.48;10.73;;;;;;;18.07;98.13;101441.19;4992301;28;20042;-75
2023/08/24 05:00:23;;;;;;;18.92;12.45;;;;;;;18.09;97.78;101441.09;5006623;28;20061;-77
2023/08/24 05:02:50;;;;;;;16.42;12.80;;;;;;;18.12;97.35;101443.59;5005456;28;20508;-77
2023/08/24 05:05:17;;;;;;;22.70;14.23;;;;;;;18.09;97.02;101447.31;5001846;28;20096;-75
2023/08/24 05:07:44;;;;;;;19.92;12.85;;;;;;;18.04;96.74;101444.00;5005828;28;20478;-77
2023/08/24 05:10:11;;;;;;;19.30;13.48;;;;;;;17.99;97.13;101454.91;5007426;28;20045;-75
2023/08/24 05:12:39;;;;;;;21.55;14.38;;;;;;;17.92;97.28;101453.47;5007145;28;20057;-76
2023/08/24 05:15:06;;;;;;;17.30;14.00;;;;;;;17.89;97.48;101456.28;5007378;28;20042;-77
2023/08/24 05:17:33;;;;;;;17.70;12.65;;;;;;;17.88;97.70;101459.91;5008244;28;20045;-76
2023/08/24 05:20:01;;;;;;;17.48;13.82;;;;;;;17.96;98.04;101456.84;4998569;28;20048;-76
2023/08/24 05:22:29;;;;;;;22.50;14.40;;;;;;;18.02;97.51;101453.03;5006849;28;20212;-76
2023/08/24 05:24:56;;;;;;;19.88;13.23;;;;;;;18.03;97.11;101452.09;5006113;28;20046;-74
2023/08/24 05:27:23;;;;;;;22.00;13.85;;;;;;;18.03;97.02;101455.63;5006355;28;20061;-76
2023/08/24 05:29:50;;;;;;;16.38;13.00;;;;;;;18.33;95.85;101454.94;5005968;28;20065;-76
2023/08/24 05:32:17;;;;;;;19.20;13.48;;;;;;;19.20;93.08;101453.75;5007264;28;20129;-75
2023/08/24 05:34:47;;;;;;;17.55;11.57;;;;;;;19.62;90.59;101450.50;5005461;28;20548;-74
2023/08/24 05:37:14;;;;;;;15.55;11.23;;;;;;;19.80;89.25;101443.19;5003043;28;20125;-76
2023/08/24 05:39:42;;;;;;;16.75;12.18;;;;;;;19.55;89.13;101447.31;4986737;28;20065;-76
2023/08/24 05:42:09;;;;;;;17.05;11.30;;;;;;;19.36;89.31;101445.72;5002091;28;20085;-77
2023/08/24 05:44:37;;;;;;;16.98;11.98;;;;;;;18.96;90.81;101458.69;5002660;28;20236;-75
2023/08/24 05:47:04;;;;;;;17.65;12.32;;;;;;;18.71;92.25;101454.69;5004001;28;20354;-73
2023/08/24 05:49:31;;;;;;;15.80;13.05;;;;;;;18.53;93.17;101450.34;5002057;28;20125;-75
2023/08/24 05:51:58;;;;;;;18.35;13.35;;;;;;;18.43;93.99;101437.47;5003408;28;20514;-74
2023/08/24 05:54:25;;;;;;;21.42;13.55;;;;;;;18.41;94.47;101435.84;5002459;28;20044;-73
2023/08/24 05:56:52;;;;;;;16.95;13.55;;;;;;;18.40;95.08;101429.66;5003324;28;20041;-75
2023/08/24 05:59:19;;;;;;;18.98;13.70;;;;;;;18.44;95.34;101417.00;5002244;28;20041;-75
2023/08/24 06:01:46;;;;;;;20.35;14.05;;;;;;;18.51;95.37;101420.22;4986281;28;20446;-75
2023/08/24 06:04:13;;;;;;;19.83;14.32;;;;;;;18.57;95.54;101419.84;5001101;28;20045;-75
2023/08/24 06:06:41;;;;;;;17.05;14.35;;;;;;;18.64;95.04;101405.22;5005143;28;20046;-75
2023/08/24 06:09:08;;;;;;;18.27;13.98;;;;;;;18.71;94.80;101403.06;4999838;28;20125;-76
2023/08/24 06:11:37;;;;;;;20.98;14.30;;;;;;;18.76;94.54;101401.88;5003617;28;20042;-75
2023/08/24 06:14:04;;;;;;;21.85;14.25;;;;;;;18.84;94.09;101389.88;5004395;28;20045;-75
2023/08/24 06:16:31;;;;;;;21.25;13.90;;;;;;;18.92;94.34;101390.34;5004847;28;20042;-74
2023/08/24 06:18:58;;;;;;;16.63;13.73;;;;;;;18.99;94.07;101377.50;4996960;28;20034;-75
2023/08/24 06:21:26;;;;;;;18.10;13.68;;;;;;;19.09;93.58;101378.69;4984213;28;20494;-75
2023/08/24 06:23:54;;;;;;;18.85;13.40;;;;;;;19.17;92.81;101384.47;5003761;28;20049;-74
2023/08/24 06:26:21;;;;;;;19.42;12.88;;;;;;;19.24;92.67;101363.56;5004617;28;20069;-74
2023/08/24 06:28:48;;;;;;;17.90;12.88;;;;;;;19.32;92.25;101355.09;5003179;28;20034;-73
2023/08/24 06:31:16;;;;;;;20.02;12.55;;;;;;;19.39;91.48;101349.31;5004087;28;20779;-75
2023/08/24 06:33:43;;;;;;;19.50;13.00;;;;;;;19.48;91.41;101349.72;5003498;28;20482;-75
2023/08/24 06:36:12;;;;;;;17.73;12.90;;;;;;;19.54;91.17;101349.34;5003253;28;20119;-75
2023/08/24 06:38:39;;;;;;;16.88;12.27;;;;;;;19.62;90.90;101347.06;5003266;28;20403;-73
2023/08/24 06:41:08;;;;;;;19.38;12.30;;;;;;;19.70;90.16;101351.94;5002763;28;20042;-73
2023/08/24 06:43:37;;;;;;;16.17;12.25;;;;;;;19.78;90.15;101354.16;5002332;28;20494;-74
2023/08/24 06:46:09;;;;;;;18.13;11.52;;;;;;;19.87;90.11;101358.97;5002750;28;20046;-74
2023/08/24 06:48:37;;;;;;;17.58;12.00;;;;;;;20.00;89.59;101364.41;5004492;28;20487;-75
2023/08/24 06:51:04;;;;;;;17.13;11.88;;;;;;;20.09;88.57;101363.88;4977182;28;20904;-75
2023/08/24 06:53:31;;;;;;;16.63;11.10;;;;;;;20.21;88.73;101369.38;4985876;28;20041;-74
2023/08/24 06:55:58;;;;;;;16.65;11.20;;;;;;;20.31;88.62;101366.06;5001752;28;20050;-75
2023/08/24 06:58:26;;;;;;;17.92;11.40;;;;;;;20.46;87.67;101376.72;4986676;28;20045;-75
2023/08/24 07:00:54;;;;;;;31.83;12.52;;;;;;;20.56;86.29;101388.56;5002848;28;20049;-75
2023/08/24 07:03:21;;;;;;;17.67;11.20;;;;;;;20.64;85.59;101391.66;5003696;28;20148;-75
2023/08/24 07:05:48;;;;;;;15.60;10.48;;;;;;;20.75;85.10;101385.59;5001060;28;20042;-75
2023/08/24 07:08:15;;;;;;;14.55;10.90;;;;;;;20.86;85.18;101378.69;5003610;28;20425;-75
2023/08/24 07:10:42;;;;;;;16.80;10.40;;;;;;;20.98;83.57;101369.84;5000457;28;20104;-76
2023/08/24 07:13:10;;;;;;;18.58;10.55;;;;;;;21.08;84.00;101356.69;4996461;28;20072;-75
2023/08/24 07:15:37;;;;;;;13.48;10.02;;;;;;;21.20;82.86;101355.03;5004628;28;20203;-75
2023/08/24 07:18:05;;;;;;;14.50;9.85;;;;;;;21.30;83.19;101357.94;5002892;28;20034;-75
2023/08/24 07:20:33;;;;;;;14.80;9.88;;;;;;;21.41;82.76;101358.94;5000946;28;20050;-75
2023/08/24 07:23:01;;;;;;;12.75;9.70;;;;;;;21.52;80.88;101362.69;5000153;28;20053;-74
2023/08/24 07:25:28;;;;;;;14.80;10.10;;;;;;;21.60;79.56;101362.19;5002305;28;20042;-75
2023/08/24 07:27:58;;;;;;;14.35;9.98;;;;;;;21.67;80.24;101356.31;4997716;28;20042;-75
2023/08/24 07:30:26;;;;;;;15.65;10.45;;;;;;;21.77;79.93;101356.53;5004480;28;20834;-75
2023/08/24 07:33:02;;;;;;;19.02;10.02;;;;;;;21.91;80.44;101360.06;5002466;28;20053;-75
2023/08/24 07:35:30;;;;;;;16.80;9.70;;;;;;;22.02;80.42;101355.66;5002897;28;20041;-75
2023/08/24 07:37:58;;;;;;;16.40;10.02;;;;;;;22.11;79.58;101358.66;5002552;28;20046;-75
2023/08/24 07:40:26;;;;;;;16.10;9.57;;;;;;;22.22;79.30;101361.44;5003949;28;20050;-76
2023/08/24 07:42:56;;;;;;;16.20;9.77;;;;;;;22.32;78.80;101362.50;5002459;28;20545;-75
2023/08/24 07:45:23;;;;;;;12.88;9.55;;;;;;;22.44;78.89;101365.28;4996990;28;20038;-75
2023/08/24 07:47:51;;;;;;;17.25;9.45;;;;;;;22.59;77.38;101360.59;5000804;28;20451;-75
2023/08/24 07:50:19;;;;;;;17.20;9.40;;;;;;;22.70;76.72;101351.78;5003506;28;20033;-75
2023/08/24 07:52:49;;;;;;;13.45;9.38;;;;;;;22.86;76.99;101341.59;4986762;28;20045;-75
2023/08/24 07:55:16;;;;;;;15.35;10.07;;;;;;;22.95;74.73;101343.59;5003468;28;20069;-75
2023/08/24 07:57:43;;;;;;;12.25;9.38;;;;;;;23.04;74.33;101335.81;4996265;28;20052;-75
2023/08/24 08:00:13;;;;;;;13.70;9.27;;;;;;;23.14;74.65;101330.59;5000974;28;20037;-75
2023/08/24 08:02:41;;;;;;;11.73;8.82;;;;;;;23.26;74.24;101332.38;5000252;28;20115;-75
2023/08/24 08:05:10;;;;;;;15.98;9.18;;;;;;;23.40;73.90;101331.31;5006220;28;20050;-74
2023/08/24 08:07:37;;;;;;;16.27;9.48;;;;;;;23.55;70.74;101330.13;5007189;28;20391;-75
2023/08/24 08:10:06;;;;;;;13.98;9.32;;;;;;;23.58;70.25;101332.56;5007528;28;20050;-75
2023/08/24 08:12:34;;;;;;;14.70;8.48;;;;;;;23.63;70.79;101329.53;5006852;28;20335;-73
2023/08/24 08:15:02;;;;;;;12.23;8.85;;;;;;;23.71;71.21;101337.84;5006367;28;20443;-74
2023/08/24 08:17:30;;;;;;;17.38;8.98;;;;;;;23.84;69.66;101335.06;5005669;28;20044;-76
2023/08/24 08:20:00;;;;;;;12.15;8.70;;;;;;;23.89;69.66;101327.47;5004894;28;20437;-75
2023/08/24 08:22:27;;;;;;;13.25;8.15;;;;;;;23.94;69.64;101332.50;5004656;28;20510;-76
2023/08/24 08:24:56;;;;;;;13.77;8.38;;;;;;;24.02;69.99;101334.59;5006043;28;20505;-76
2023/08/24 08:27:23;;;;;;;12.73;7.93;;;;;;;24.15;69.70;101334.47;5004795;28;20049;-74
2023/08/24 08:29:51;;;;;;;13.35;8.50;;;;;;;24.27;68.77;101333.50;5006381;28;20034;-75
2023/08/24 08:32:18;;;;;;;14.63;7.63;;;;;;;24.30;68.64;101327.88;5006411;28;20044;-73
2023/08/24 08:34:48;;;;;;;11.00;7.25;;;;;;;24.37;69.41;101330.06;5007340;28;20046;-74
2023/08/24 08:37:15;;;;;;;11.30;7.07;;;;;;;24.50;68.05;101330.78;5003843;28;20462;-74
2023/08/24 08:39:42;;;;;;;10.27;7.00;;;;;;;24.60;68.44;101333.53;5006367;28;20053;-73
2023/08/24 08:42:14;;;;;;;12.13;7.05;;;;;;;24.72;68.22;101324.50;5007887;28;20146;-74
2023/08/24 08:44:44;;;;;;;11.32;6.95;;;;;;;24.88;68.31;101317.78;5006739;28;20073;-75
2023/08/24 08:47:13;;;;;;;13.10;6.68;;;;;;;25.04;67.87;101330.84;5004784;28;20410;-75
2023/08/24 08:49:43;;;;;;;17.63;7.35;;;;;;;25.18;68.08;101319.75;5005603;28;20034;-76
2023/08/24 08:52:12;;;;;;;11.00;6.70;;;;;;;25.30;65.79;101308.91;5002131;28;20042;-75
2023/08/24 08:54:40;;;;;;;10.20;6.97;;;;;;;25.37;65.70;101304.69;5006017;28;20088;-78
2023/08/24 08:57:07;;;;;;;12.18;6.60;;;;;;;25.41;66.51;101298.91;5005002;28;20074;-75
2023/08/24 08:59:35;;;;;;;13.35;7.20;;;;;;;25.52;64.33;101295.31;5005566;28;20038;-76
2023/08/24 09:02:03;;;;;;;11.65;7.00;;;;;;;25.50;64.68;101283.78;4988032;28;20108;-75
2023/08/24 09:04:34;;;;;;;11.98;7.20;;;;;;;25.54;64.53;101273.56;5004968;28;20037;-75
2023/08/24 09:07:04;;;;;;;9.30;6.63;;;;;;;25.57;63.65;101257.97;5004136;28;20398;-74
2023/08/24 09:09:33;;;;;;;13.95;6.72;;;;;;;25.57;63.51;101244.47;5005441;28;20046;-76
2023/08/24 09:12:01;;;;;;;13.15;6.55;;;;;;;25.60;63.94;101247.88;5005225;28;20050;-75
2023/08/24 09:14:28;;;;;;;10.35;6.78;;;;;;;25.70;64.30;101229.91;5004312;28;20080;-74
2023/08/24 09:16:55;;;;;;;10.90;6.43;;;;;;;25.76;64.16;101226.63;5004606;28;20081;-74
2023/08/24 09:19:29;;;;;;;17.48;6.50;;;;;;;25.86;63.78;101227.53;5004443;28;20241;-76
2023/08/24 09:21:58;;;;;;;11.98;6.32;;;;;;;25.90;62.51;101222.69;5004852;28;20062;-75
2023/08/24 09:24:31;;;;;;;10.50;5.82;;;;;;;25.93;63.03;101217.03;5004121;28;20093;-75
2023/08/24 09:27:13;;;;;;;9.77;6.38;;;;;;;25.98;62.74;101211.22;5004346;28;20565;-77
2023/08/24 09:29:40;;;;;;;8.88;5.88;;;;;;;26.02;62.58;101194.59;5005492;28;20042;-77
2023/08/24 09:32:09;;;;;;;9.02;5.68;;;;;;;26.08;62.71;101195.88;5003467;28;20084;-75
2023/08/24 09:34:36;;;;;;;8.60;5.47;;;;;;;26.14;63.54;101189.97;5000694;28;20818;-74
2023/08/24 09:37:11;;;;;;;7.53;5.55;;;;;;;26.21;62.20;101190.22;5004522;28;20495;-75
2023/08/24 09:39:39;;;;;;;9.07;5.20;;;;;;;26.24;61.56;101184.56;5003807;28;20046;-75
2023/08/24 09:42:06;;;;;;;12.07;5.93;;;;;;;26.28;61.23;101168.91;5005430;28;20041;-74
2023/08/24 09:44:34;;;;;;;11.18;5.63;;;;;;;26.32;61.72;101173.06;5004209;28;20042;-75
2023/08/24 09:47:02;;;;;;;10.25;5.68;;;;;;;26.42;61.60;101175.75;5001834;28;20069;-74
2023/08/24 09:49:32;;;;;;;11.45;5.65;;;;;;;26.56;61.38;101178.03;5003158;28;20129;-75
2023/08/24 09:52:00;;;;;;;6.95;5.45;;;;;;;26.67;60.72;101187.81;5002544;28;20049;-75
2023/08/24 09:54:27;;;;;;;11.55;5.60;;;;;;;26.78;61.02;101208.50;5001707;28;20042;-76
2023/08/24 09:56:58;;;;;;;9.23;5.30;;;;;;;26.90;60.77;101222.69;5002216;28;20052;-75
2023/08/24 09:59:27;;;;;;;11.85;5.95;;;;;;;27.01;59.99;101236.06;5002338;28;20104;-76
2023/08/24 10:01:57;;;;;;;8.23;5.22;;;;;;;27.12;59.11;101240.44;4986622;28;20058;-75
2023/08/24 10:04:27;;;;;;;6.95;5.10;;;;;;;27.15;58.83;101233.91;5007774;28;20041;-75
2023/08/24 10:07:11;;;;;;;10.93;5.32;;;;;;;27.19;58.20;101233.47;5004978;28;20507;-75
2023/08/24 10:09:47;;;;;;;10.07;5.78;;;;;;;27.24;57.40;101225.75;5005697;28;20123;-75
2023/08/24 10:12:18;;;;;;;7.72;5.03;;;;;;;27.24;57.68;101225.75;5004594;28;20069;-74
2023/08/24 10:15:03;;;;;;;6.65;4.60;;;;;;;27.25;58.72;101226.63;5005106;28;20038;-75
2023/08/24 10:17:33;;;;;;;8.25;5.03;;;;;;;27.34;59.24;101223.03;5002765;28;20046;-75
2023/08/24 10:20:01;;;;;;;9.35;5.07;;;;;;;27.38;57.93;101221.72;5003461;28;20111;-75
2023/08/24 10:22:30;;;;;;;9.80;4.82;;;;;;;27.40;58.40;101210.75;5000311;28;20046;-74
2023/08/24 10:24:58;;;;;;;10.43;5.05;;;;;;;27.44;57.99;101212.19;5002327;28;20049;-75
2023/08/24 10:27:27;;;;;;;14.43;5.32;;;;;;;27.42;58.16;101209.59;5001768;28;20080;-76
2023/08/24 10:29:54;;;;;;;9.55;5.25;;;;;;;27.40;57.92;101210.75;5004589;28;20037;-76
2023/08/24 10:32:24;;;;;;;10.70;4.72;;;;;;;27.37;57.98;101214.59;5003357;28;20181;-77
2023/08/24 10:34:51;;;;;;;7.75;4.75;;;;;;;27.34;58.44;101209.50;5000636;28;20125;-77
2023/08/24 10:37:27;;;;;;;8.40;4.78;;;;;;;27.37;58.18;101200.22;5003190;28;20111;-77
2023/08/24 10:39:55;;;;;;;9.27;4.43;;;;;;;27.39;59.24;101206.34;5002812;28;20052;-76
2023/08/24 10:42:22;;;;;;;9.65;4.90;;;;;;;27.46;59.39;101193.94;5002735;28;20373;-75
2023/08/24 10:44:50;;;;;;;12.35;4.93;;;;;;;27.50;59.16;101199.91;5003213;28;20059;-76
2023/08/24 10:47:22;;;;;;;8.57;5.30;;;;;;;27.47;58.78;101192.13;5002559;28;20113;-74
2023/08/24 10:49:56;;;;;;;10.30;4.82;;;;;;;27.41;59.10;101193.53;5002783;28;20037;-75
2023/08/24 10:52:25;;;;;;;7.63;5.22;;;;;;;27.31;58.39;101188.13;5001577;28;20349;-75
2023/08/24 10:54:54;;;;;;;8.38;5.00;;;;;;;27.20;59.08;101186.47;5002208;28;20863;-74
2023/08/24 10:57:24;;;;;;;8.38;4.88;;;;;;;27.10;59.83;101193.78;5003968;28;20083;-75
2023/08/24 11:00:09;;;;;;;12.30;5.10;;;;;;;26.96;60.30;101182.41;5002683;28;20324;-75
2023/08/24 11:02:51;;;;;;;8.85;4.95;;;;;;;26.81;60.92;101190.13;5003419;28;20050;-74
2023/08/24 11:05:30;;;;;;;9.90;5.10;;;;;;;26.66;61.32;101192.38;5001041;28;20286;-75
2023/08/24 11:08:04;;;;;;;9.18;4.05;;;;;;;26.57;61.40;101189.66;5001298;28;20382;-75
2023/08/24 11:10:48;;;;;;;11.10;3.60;;;;;;;26.55;61.58;101203.34;5001711;28;20568;-74
2023/08/24 11:13:19;;;;;;;16.38;3.40;;;;;;;26.56;61.55;101207.75;5000166;28;20038;-75
2023/08/24 11:15:54;;;;;;;7.43;3.20;;;;;;;26.55;61.08;101224.97;4985728;28;20558;-74
2023/08/24 11:18:27;;;;;;;11.05;3.38;;;;;;;26.52;61.52;101219.84;5003286;28;20077;-73
2023/08/24 11:21:06;;;;;;;6.67;3.40;;;;;;;26.51;60.71;101227.09;5003593;28;20049;-73
2023/08/24 11:23:34;;;;;;;10.02;3.20;;;;;;;26.56;60.82;101229.38;4999894;28;20042;-75
2023/08/24 11:26:02;;;;;;;5.80;3.22;;;;;;;26.61;60.67;101210.88;5001708;28;20108;-73